Time;durP1;ratioP1;P1;durP2;ratioP2;P2;SDS_P1;SDS_P2;PMS_P1;PMS_P2;Temp;Humidity;BMP_temperature;BMP_pressure;BME280_temperature;BME280_humidity;BME280_pressure;Samples;Min_cycle;Max_cycle;Signal;HPM_P1;HPM_P2
2023/05/23 00:00:42;;;;;;;21.03;17.33;;;;;;;;;;5012451;28;20285;-73
2023/05/23 00:03:09;;;;;;;18.77;16.80;;;;;;;;;;5027026;28;20207;-74
2023/05/23 00:05:36;;;;;;;20.83;18.63;;;;;;;;;;5027787;28;20251;-74
2023/05/23 00:08:02;;;;;;;20.93;18.40;;;;;;;;;;5014597;28;20609;-74
2023/05/23 00:10:28;;;;;;;22.33;18.13;;;;;;;;;;5026141;28;20187;-74
2023/05/23 00:12:56;;;;;;;23.73;20.20;;;;;;;;;;5030100;28;20617;-74
2023/05/23 00:15:23;;;;;;;21.87;19.30;;;;;;;;;;5025512;28;20182;-74
2023/05/23 00:17:50;;;;;;;23.90;20.10;;;;;;;;;;5019343;28;20203;-73
2023/05/23 00:20:16;;;;;;;22.80;20.30;;;;;;;;;;5015330;28;20186;-74
2023/05/23 00:22:42;;;;;;;25.00;21.17;;;;;;;;;;5028656;28;20694;-74
2023/05/23 00:25:09;;;;;;;23.07;19.43;;;;;;;;;;5024812;28;20215;-74
2023/05/23 00:27:35;;;;;;;24.77;20.60;;;;;;;;;;5027147;28;20958;-74
2023/05/23 00:30:01;;;;;;;24.43;20.43;;;;;;;;;;5027273;28;20181;-74
2023/05/23 00:32:28;;;;;;;24.67;20.90;;;;;;;;;;4992641;28;20290;-73
2023/05/23 00:34:54;;;;;;;26.00;20.67;;;;;;;;;;5028014;28;20273;-73
2023/05/23 00:37:21;;;;;;;32.83;25.63;;;;;;;;;;5028568;28;20206;-74
2023/05/23 00:39:48;;;;;;;28.27;21.67;;;;;;;;;;5030824;28;20273;-74
2023/05/23 00:42:14;;;;;;;30.07;23.90;;;;;;;;;;4995072;28;20206;-73
2023/05/23 00:44:40;;;;;;;24.20;20.50;;;;;;;;;;5023193;28;20178;-73
2023/05/23 00:47:07;;;;;;;29.87;23.80;;;;;;;;;;5010685;28;20202;-73
2023/05/23 00:49:34;;;;;;;27.10;21.37;;;;;;;;;;5031098;28;20183;-73
2023/05/23 00:52:00;;;;;;;24.73;21.57;;;;;;;;;;5025227;28;20688;-74
2023/05/23 00:54:29;;;;;;;26.30;20.77;;;;;;;;;;5028025;28;20178;-74
2023/05/23 00:56:56;;;;;;;29.60;24.03;;;;;;;;;;5013862;28;20293;-74
2023/05/23 00:59:25;;;;;;;30.47;23.50;;;;;;;;;;5025410;28;20281;-74
2023/05/23 01:01:52;;;;;;;32.40;24.80;;;;;;;;;;5025521;28;20571;-74
2023/05/23 01:04:25;;;;;;;31.93;25.53;;;;;;;;;;5023337;28;20676;-74
2023/05/23 01:06:54;;;;;;;29.43;23.33;;;;;;;;;;5025676;28;20209;-74
2023/05/23 01:09:21;;;;;;;34.83;25.57;;;;;;;;;;5002217;28;20641;-74
2023/05/23 01:12:05;;;;;;;32.40;24.67;;;;;;;;;;5026288;28;20183;-74
2023/05/23 01:14:39;;;;;;;29.33;23.77;;;;;;;;;;5027318;28;20190;-73
2023/05/23 01:17:12;;;;;;;36.30;26.17;;;;;;;;;;5009242;28;20206;-73
2023/05/23 01:19:59;;;;;;;31.83;25.00;;;;;;;;;;5027626;28;20193;-74
2023/05/23 01:22:44;;;;;;;28.63;24.03;;;;;;;;;;5007883;28;20239;-74
2023/05/23 01:25:17;;;;;;;31.40;25.80;;;;;;;;;;5024794;28;20185;-74
2023/05/23 01:27:52;;;;;;;34.73;25.33;;;;;;;;;;5022661;28;20195;-74
2023/05/23 01:30:20;;;;;;;41.50;30.83;;;;;;;;;;5028550;28;20200;-74
2023/05/23 01:32:47;;;;;;;38.50;28.50;;;;;;;;;;5029544;28;20217;-74
2023/05/23 01:35:19;;;;;;;35.80;28.03;;;;;;;;;;5027413;28;20252;-74
2023/05/23 01:37:46;;;;;;;38.07;28.37;;;;;;;;;;4989824;28;20215;-74
2023/05/23 01:40:12;;;;;;;35.27;27.07;;;;;;;;;;5012405;28;20198;-74
2023/05/23 01:42:38;;;;;;;39.40;29.07;;;;;;;;;;5010945;28;20583;-73
2023/05/23 01:45:04;;;;;;;40.57;28.87;;;;;;;;;;5028597;28;20183;-74
2023/05/23 01:47:31;;;;;;;41.00;29.10;;;;;;;;;;5027774;28;20676;-74
2023/05/23 01:49:58;;;;;;;32.30;24.87;;;;;;;;;;4996326;28;20190;-74
2023/05/23 01:52:25;;;;;;;25.93;21.27;;;;;;;;;;5024889;28;20273;-74
2023/05/23 01:54:51;;;;;;;31.73;23.83;;;;;;;;;;5027779;28;20244;-74
2023/05/23 01:57:19;;;;;;;31.83;24.47;;;;;;;;;;5019826;28;20596;-74
2023/05/23 01:59:45;;;;;;;36.87;27.60;;;;;;;;;;4997941;28;20182;-74
2023/05/23 02:02:11;;;;;;;37.57;26.90;;;;;;;;;;5023990;28;20233;-75
2023/05/23 02:04:37;;;;;;;35.50;28.10;;;;;;;;;;5008087;28;20191;-74
2023/05/23 02:07:03;;;;;;;37.23;27.93;;;;;;;;;;5011602;28;20232;-74
2023/05/23 02:09:29;;;;;;;41.57;29.60;;;;;;;;;;5012391;28;20252;-74
2023/05/23 02:11:56;;;;;;;43.17;32.13;;;;;;;;;;5008899;28;20190;-74
2023/05/23 02:14:22;;;;;;;48.20;33.23;;;;;;;;;;5006192;28;20191;-73
2023/05/23 02:16:51;;;;;;;45.33;32.13;;;;;;;;;;5008289;28;20245;-73
2023/05/23 02:19:17;;;;;;;42.57;31.57;;;;;;;;;;5008818;28;20178;-73
2023/05/23 02:21:45;;;;;;;41.40;31.00;;;;;;;;;;5020290;28;20210;-74
2023/05/23 02:24:11;;;;;;;46.37;32.70;;;;;;;;;;5009151;28;20187;-73
2023/05/23 02:26:38;;;;;;;34.40;27.43;;;;;;;;;;5022694;28;20237;-73
2023/05/23 02:29:04;;;;;;;26.93;20.67;;;;;;;;;;5024263;28;20187;-74
2023/05/23 02:31:30;;;;;;;34.80;24.67;;;;;;;;;;5008984;28;20669;-74
2023/05/23 02:33:56;;;;;;;25.93;21.00;;;;;;;;;;5009065;28;20273;-73
2023/05/23 02:36:22;;;;;;;28.83;22.13;;;;;;;;;;5032443;28;20683;-73
2023/05/23 02:38:48;;;;;;;28.37;22.73;;;;;;;;;;5020286;28;20190;-74
2023/05/23 02:41:16;;;;;;;29.13;23.30;;;;;;;;;;5031338;28;20214;-73
2023/05/23 02:43:45;;;;;;;26.07;21.03;;;;;;;;;;5015608;28;20634;-74
2023/05/23 02:46:12;;;;;;;27.20;21.70;;;;;;;;;;5029266;28;20266;-74
2023/05/23 02:48:38;;;;;;;26.20;20.93;;;;;;;;;;5013621;28;20240;-74
2023/05/23 02:51:05;;;;;;;28.43;21.73;;;;;;;;;;5029413;28;20183;-74
2023/05/23 02:53:31;;;;;;;32.90;24.87;;;;;;;;;;5012949;28;20205;-74
2023/05/23 02:55:57;;;;;;;29.53;23.00;;;;;;;;;;5013655;28;20293;-74
2023/05/23 02:58:24;;;;;;;31.63;24.70;;;;;;;;;;5008732;28;20674;-74
2023/05/23 03:00:50;;;;;;;27.57;24.07;;;;;;;;;;4992911;28;20179;-74
2023/05/23 03:03:17;;;;;;;40.13;29.57;;;;;;;;;;5027045;28;20214;-73
2023/05/23 03:05:43;;;;;;;40.07;31.50;;;;;;;;;;5010155;28;20175;-73
2023/05/23 03:08:10;;;;;;;40.80;29.53;;;;;;;;;;5029245;28;20206;-73
2023/05/23 03:10:36;;;;;;;39.47;29.83;;;;;;;;;;5013665;28;20185;-73
2023/05/23 03:13:02;;;;;;;38.87;31.03;;;;;;;;;;5022597;28;20185;-73
2023/05/23 03:15:29;;;;;;;45.43;34.43;;;;;;;;;;5022110;28;20736;-73
2023/05/23 03:17:55;;;;;;;44.80;34.40;;;;;;;;;;5023768;28;20212;-73
2023/05/23 03:20:21;;;;;;;46.53;34.87;;;;;;;;;;5030567;28;20210;-73
2023/05/23 03:22:47;;;;;;;41.20;31.93;;;;;;;;;;5030945;28;20264;-73
2023/05/23 03:25:16;;;;;;;38.20;31.17;;;;;;;;;;5028172;28;20196;-73
2023/05/23 03:27:42;;;;;;;56.50;39.40;;;;;;;;;;5021166;28;20213;-73
2023/05/23 03:30:09;;;;;;;49.50;36.17;;;;;;;;;;5011354;28;20183;-73
2023/05/23 03:32:36;;;;;;;45.23;34.80;;;;;;;;;;5012086;28;20187;-73
2023/05/23 03:35:02;;;;;;;47.67;35.70;;;;;;;;;;5032643;28;20650;-74
2023/05/23 03:37:28;;;;;;;44.47;33.57;;;;;;;;;;5022152;28;20212;-74
2023/05/23 03:39:54;;;;;;;41.97;31.33;;;;;;;;;;5028591;28;20187;-74
2023/05/23 03:42:21;;;;;;;44.53;34.27;;;;;;;;;;5008899;28;20240;-74
2023/05/23 03:44:47;;;;;;;47.37;34.87;;;;;;;;;;5009023;28;20178;-74
2023/05/23 03:47:13;;;;;;;43.07;33.73;;;;;;;;;;5015852;28;20202;-73
2023/05/23 03:49:44;;;;;;;46.70;34.37;;;;;;;;;;5023697;28;20517;-73
2023/05/23 03:52:10;;;;;;;46.53;34.87;;;;;;;;;;5010782;28;20189;-74
2023/05/23 03:54:37;;;;;;;49.87;36.30;;;;;;;;;;5009616;28;20200;-74
2023/05/23 03:57:03;;;;;;;46.80;33.87;;;;;;;;;;5011524;28;20249;-74
2023/05/23 03:59:29;;;;;;;50.50;34.77;;;;;;;;;;5012908;28;20186;-73
2023/05/23 04:01:57;;;;;;;48.30;36.60;;;;;;;;;;5010151;28;20210;-73
2023/05/23 04:04:24;;;;;;;49.80;36.33;;;;;;;;;;5014500;28;20186;-74
2023/05/23 04:06:51;;;;;;;46.93;37.27;;;;;;;;;;5011282;28;20221;-74
2023/05/23 04:09:17;;;;;;;51.07;38.60;;;;;;;;;;5023074;28;20635;-74
2023/05/23 04:11:46;;;;;;;48.60;36.03;;;;;;;;;;5010687;28;20240;-73
2023/05/23 04:14:12;;;;;;;44.37;33.60;;;;;;;;;;5012588;28;20182;-74
2023/05/23 04:16:41;;;;;;;47.43;36.63;;;;;;;;;;5023902;28;20196;-73
2023/05/23 04:19:07;;;;;;;46.33;35.70;;;;;;;;;;5009950;28;20183;-73
2023/05/23 04:21:34;;;;;;;45.57;35.37;;;;;;;;;;5009027;28;20210;-73
2023/05/23 04:24:07;;;;;;;46.17;35.67;;;;;;;;;;5012981;28;20170;-73
2023/05/23 04:26:35;;;;;;;47.43;35.43;;;;;;;;;;5013193;28;20216;-73
2023/05/23 04:29:02;;;;;;;54.13;39.53;;;;;;;;;;5010046;28;20184;-73
2023/05/23 04:31:28;;;;;;;52.93;38.90;;;;;;;;;;5020608;28;20294;-73
2023/05/23 04:33:55;;;;;;;54.27;40.03;;;;;;;;;;4993236;28;20240;-74
2023/05/23 04:36:22;;;;;;;52.13;37.57;;;;;;;;;;5013109;28;20187;-74
2023/05/23 04:38:52;;;;;;;55.03;37.23;;;;;;;;;;5013083;28;20187;-73
2023/05/23 04:41:22;;;;;;;47.87;35.20;;;;;;;;;;5007451;28;20289;-74
2023/05/23 04:43:53;;;;;;;43.83;33.17;;;;;;;;;;5027083;28;20178;-74
2023/05/23 04:46:29;;;;;;;37.67;30.33;;;;;;;;;;5012888;28;20186;-74
2023/05/23 04:49:22;;;;;;;32.00;27.20;;;;;;;;;;5018812;28;20257;-73
2023/05/23 04:51:48;;;;;;;31.57;27.10;;;;;;;;;;5011280;28;20251;-74
2023/05/23 04:54:21;;;;;;;30.27;25.90;;;;;;;;;;5007173;28;20201;-73
2023/05/23 04:56:47;;;;;;;26.17;23.30;;;;;;;;;;5011692;28;20208;-74
2023/05/23 04:59:15;;;;;;;25.50;22.43;;;;;;;;;;5010077;28;20196;-74
2023/05/23 05:01:41;;;;;;;25.60;21.20;;;;;;;;;;5008879;28;20242;-74
2023/05/23 05:04:08;;;;;;;23.20;20.50;;;;;;;;;;5010784;28;20190;-74
2023/05/23 05:06:35;;;;;;;24.10;20.40;;;;;;;;;;5009765;28;20759;-73
2023/05/23 05:09:01;;;;;;;22.20;19.77;;;;;;;;;;5012302;28;20214;-73
2023/05/23 05:11:27;;;;;;;22.43;19.10;;;;;;;;;;5011267;28;20191;-73
2023/05/23 05:14:00;;;;;;;19.33;17.43;;;;;;;;;;5009528;28;20179;-74
2023/05/23 05:16:36;;;;;;;18.87;16.80;;;;;;;;;;5007034;28;20197;-73
2023/05/23 05:19:03;;;;;;;19.40;17.40;;;;;;;;;;5009211;28;20186;-74
2023/05/23 05:21:31;;;;;;;18.67;16.67;;;;;;;;;;5005356;28;20234;-74
2023/05/23 05:24:08;;;;;;;20.07;16.93;;;;;;;;;;5008303;28;20273;-73
2023/05/23 05:26:41;;;;;;;17.90;16.10;;;;;;;;;;5010326;28;20209;-73
2023/05/23 05:29:11;;;;;;;22.47;18.40;;;;;;;;;;5010412;28;20318;-74
2023/05/23 05:31:46;;;;;;;20.07;17.50;;;;;;;;;;5005261;28;20198;-74
2023/05/23 05:34:14;;;;;;;19.80;17.70;;;;;;;;;;5022591;28;20684;-73
2023/05/23 05:36:45;;;;;;;22.40;18.63;;;;;;;;;;5008031;28;20268;-73
2023/05/23 05:39:19;;;;;;;21.73;18.97;;;;;;;;;;5023838;28;21637;-74
2023/05/23 05:41:48;;;;;;;18.90;16.90;;;;;;;;;;5007526;28;20223;-73
2023/05/23 05:44:18;;;;;;;21.13;18.20;;;;;;;;;;5006039;28;20190;-73
2023/05/23 05:46:47;;;;;;;19.00;17.00;;;;;;;;;;5008459;28;20682;-73
2023/05/23 05:49:22;;;;;;;21.83;18.83;;;;;;;;;;5011643;28;20183;-73
2023/05/23 05:51:51;;;;;;;21.43;19.13;;;;;;;;;;5017692;28;20738;-73
2023/05/23 05:54:18;;;;;;;21.00;18.67;;;;;;;;;;5009710;28;20190;-72
2023/05/23 05:56:45;;;;;;;23.67;20.30;;;;;;;;;;5028945;28;20465;-73
2023/05/23 05:59:14;;;;;;;23.80;21.10;;;;;;;;;;4992070;28;20198;-73
2023/05/23 06:01:43;;;;;;;20.07;17.97;;;;;;;;;;5001439;28;20412;-73
2023/05/23 06:04:11;;;;;;;22.00;19.53;;;;;;;;;;4997611;28;20178;-73
2023/05/23 06:06:40;;;;;;;23.03;20.63;;;;;;;;;;5004446;28;20195;-72
2023/05/23 06:09:08;;;;;;;22.43;20.13;;;;;;;;;;5003736;28;20180;-73
2023/05/23 06:11:39;;;;;;;21.40;19.30;;;;;;;;;;5022046;28;20704;-74
2023/05/23 06:14:08;;;;;;;22.10;19.67;;;;;;;;;;5019863;28;20185;-73
2023/05/23 06:16:41;;;;;;;21.50;19.00;;;;;;;;;;4997614;28;20275;-73
2023/05/23 06:19:07;;;;;;;22.97;19.97;;;;;;;;;;5015216;28;20194;-75
2023/05/23 06:21:38;;;;;;;21.20;18.40;;;;;;;;;;5026601;28;20713;-73
2023/05/23 06:24:12;;;;;;;18.53;16.53;;;;;;;;;;5006590;28;20207;-74
2023/05/23 06:26:43;;;;;;;20.47;18.47;;;;;;;;;;5012092;28;20924;-72
2023/05/23 06:29:12;;;;;;;18.47;16.47;;;;;;;;;;5023905;28;20248;-72
2023/05/23 06:31:39;;;;;;;19.63;17.73;;;;;;;;;;5026306;28;20240;-73
2023/05/23 06:34:10;;;;;;;20.80;18.33;;;;;;;;;;5000996;28;20195;-72
2023/05/23 06:36:39;;;;;;;18.87;16.97;;;;;;;;;;5020774;28;20296;-72
2023/05/23 06:39:08;;;;;;;17.97;16.27;;;;;;;;;;5025886;28;20217;-72
2023/05/23 06:41:36;;;;;;;18.13;16.23;;;;;;;;;;5019226;28;20249;-72
2023/05/23 06:44:07;;;;;;;18.17;16.37;;;20.30;63.60;;;;;;5004554;28;20187;-72
2023/05/23 06:46:36;;;;;;;17.13;15.53;;;18.70;99.90;;;;;;5023426;28;20257;-72
2023/05/23 06:49:02;;;;;;;17.03;14.27;;;18.40;99.90;;;;;;5010561;28;20773;-71
2023/05/23 06:51:28;;;;;;;14.43;13.03;;;18.50;99.90;;;;;;5015154;28;20202;-72
2023/05/23 06:53:57;;;;;;;14.90;13.40;;;18.50;99.90;;;;;;4999485;28;20694;-72
2023/05/23 06:56:29;;;;;;;14.33;12.93;;;;;;;;;;5011118;28;20706;-72
2023/05/23 06:59:02;;;;;;;14.60;13.20;;;;;;;;;;5018071;28;20558;-72
2023/05/23 07:01:32;;;;;;;14.83;13.43;;;;;;;;;;5020493;28;20189;-73
2023/05/23 07:03:59;;;;;;;14.13;12.73;;;;;;;;;;5017866;28;20190;-73
2023/05/23 07:06:31;;;;;;;14.67;13.17;;;;;;;;;;5027483;28;20206;-72
2023/05/23 07:09:03;;;;;;;13.80;12.50;;;;;;;;;;5002535;28;20194;-73
2023/05/23 07:11:30;;;;;;;14.50;13.10;;;;;;;;;;5006844;28;20182;-73
2023/05/23 07:13:59;;;;;;;14.07;12.57;;;;;;;;;;5000579;28;20217;-73
2023/05/23 07:16:35;;;;;;;14.53;13.13;;;;;;;;;;5006507;28;20175;-73
2023/05/23 07:19:10;;;;;;;13.20;11.87;;;;;;;;;;5010312;28;20186;-73
2023/05/23 07:21:46;;;;;;;14.50;13.10;;;;;;;;;;5007450;28;20652;-73
2023/05/23 07:24:16;;;;;;;15.00;13.27;;;;;;;;;;5016317;28;20179;-72
2023/05/23 07:26:44;;;;;;;14.43;12.93;;;;;;;;;;5008491;28;20241;-74
2023/05/23 07:29:11;;;;;;;14.00;12.27;;;;;;;;;;5008434;28;20258;-73
2023/05/23 07:31:38;;;;;;;15.10;13.60;;;;;;;;;;5004792;28;20198;-73
2023/05/23 07:34:09;;;;;;;13.00;11.70;;;;;;;;;;5007976;28;20392;-73
2023/05/23 07:36:53;;;;;;;13.13;11.93;;;;;;;;;;5007354;28;20739;-73
2023/05/23 07:39:26;;;;;;;12.37;11.33;;;;;;;;;;5018248;28;20194;-73
2023/05/23 07:41:55;;;;;;;12.30;11.20;;;;;;;;;;5005709;28;20238;-73
2023/05/23 07:44:21;;;;;;;11.60;10.23;;;;;;;;;;5009404;28;20186;-73
2023/05/23 07:46:48;;;;;;;11.20;10.20;;;;;;;;;;5018286;28;20198;-73
2023/05/23 07:49:15;;;;;;;10.90;9.90;;;;;;;;;;5008121;28;20214;-73
2023/05/23 07:51:44;;;;;;;10.43;9.43;;;;;;;;;;5006647;28;20183;-73
2023/05/23 07:54:11;;;;;;;11.30;10.20;;;;;;;;;;5007275;28;20182;-73
2023/05/23 07:56:43;;;;;;;10.90;9.90;;;;;;;;;;5003711;28;20191;-74
2023/05/23 07:59:12;;;;;;;9.57;8.67;;;;;;;;;;5007427;28;20225;-74
2023/05/23 08:01:40;;;;;;;10.40;9.50;;;;;;;;;;4994001;28;20210;-75
2023/05/23 08:04:10;;;;;;;10.77;9.77;;;;;;;;;;5020223;28;20191;-75
2023/05/23 08:06:54;;;;;;;10.40;9.47;;;;;;;;;;5013025;28;20252;-75
2023/05/23 08:09:32;;;;;;;11.17;10.17;;;;;;;;;;5011290;28;20174;-75
2023/05/23 08:12:05;;;;;;;10.63;9.60;;;;;;;;;;5016323;28;20213;-75
2023/05/23 08:14:35;;;;;;;10.57;9.60;;;;;;;;;;5015564;28;20199;-75
2023/05/23 08:17:14;;;;;;;9.80;8.90;;;;;;;;;;5013731;28;20305;-75
2023/05/23 08:19:42;;;;;;;8.63;7.90;;;;;;;;;;5016292;28;20207;-74
2023/05/23 08:22:12;;;;;;;8.93;8.17;;;;;;;;;;5008287;28;20285;-75
2023/05/23 08:24:38;;;;;;;9.80;8.90;;;;;;;;;;5032821;28;20202;-75
2023/05/23 08:27:08;;;;;;;9.53;8.73;;;;;;;;;;5008350;28;20254;-74
2023/05/23 08:29:40;;;;;;;9.97;9.07;;;;;;;;;;5017187;28;20186;-75
2023/05/23 08:32:07;;;;;;;10.83;9.83;;;;;;;;;;5004208;28;20252;-75
2023/05/23 08:34:34;;;;;;;9.83;8.83;;;;;;;;;;4998046;28;20273;-75
2023/05/23 08:37:04;;;;;;;8.80;8.10;;;;;;;;;;5030534;28;20214;-74
2023/05/23 08:39:31;;;;;;;8.50;7.80;;;;;;;;;;5018318;28;20190;-74
2023/05/23 08:42:18;;;;;;;8.07;7.37;;;;;;;;;;5013948;28;20276;-74
2023/05/23 08:44:45;;;;;;;8.87;8.07;;;;;;;;;;5031812;28;20182;-74
2023/05/23 08:47:12;;;;;;;8.80;7.90;;;;;;;;;;5020493;28;20252;-73
2023/05/23 08:49:52;;;;;;;8.97;8.00;;;;;;;;;;5011638;28;20174;-73
2023/05/23 08:52:25;;;;;;;8.53;7.73;;;;;;;;;;4995843;28;20194;-74
2023/05/23 08:55:01;;;;;;;7.73;7.03;;;;;;;;;;5033574;28;20270;-74
2023/05/23 08:57:42;;;;;;;7.67;6.97;;;;;;;;;;5121924;27;20638;-73
2023/05/23 09:00:35;;;;;;;6.90;6.30;;;;;;;;;;5122069;28;20188;-73
2023/05/23 09:03:04;;;;;;;7.00;6.40;;;;;;;;;;5079901;28;20537;-74
2023/05/23 09:05:49;;;;;;;7.03;6.43;;;;;;;;;;5098281;28;20194;-74
2023/05/23 09:08:18;;;;;;;7.80;7.00;;;;;;;;;;5102982;28;20207;-74
2023/05/23 09:10:52;;;;;;;7.10;6.50;;;;;;;;;;5102188;28;20249;-74
2023/05/23 09:13:24;;;;;;;7.00;6.33;;;;;;;;;;5103508;28;20194;-74
2023/05/23 09:15:58;;;;;;;6.60;5.90;;;;;;;;;;5111271;28;20238;-74
2023/05/23 09:18:27;;;;;;;6.07;5.50;;;;;;;;;;5102736;28;20710;-74
2023/05/23 09:20:53;;;;;;;6.30;5.80;;;;;;;;;;5096526;28;21083;-73
2023/05/23 09:23:23;;;;;;;5.97;5.50;;;;;;;;;;5115172;28;20169;-74
2023/05/23 09:25:53;;;;;;;6.37;5.77;;;;;;;;;;5098244;28;20240;-74
2023/05/23 09:28:28;;;;;;;5.53;5.03;;;;;;;;;;5118351;28;20207;-74
2023/05/23 09:30:58;;;;;;;6.00;5.30;;;;;;;;;;5113793;28;20240;-76
2023/05/23 09:33:28;;;;;;;5.83;5.33;;;;;;;;;;5105293;28;20271;-75
2023/05/23 09:36:00;;;;;;;6.23;5.73;;;;;;;;;;5109834;28;20210;-75
2023/05/23 09:38:29;;;;;;;6.07;5.57;;;;;;;;;;5083469;28;20576;-75
2023/05/23 09:41:07;;;;;;;5.93;5.33;;;;;;;;;;5119342;28;20181;-75
2023/05/23 09:43:37;;;;;;;5.90;5.17;;;;;;;;;;5097448;28;20255;-75
2023/05/23 09:46:07;;;;;;;6.27;5.13;;;;;;;;;;5096328;28;20222;-75
2023/05/23 09:48:51;;;;;;;5.57;5.10;;;;;;;;;;5107022;28;20210;-75
2023/05/23 09:51:23;;;;;;;5.90;5.40;;;;;;;;;;5101675;28;20179;-75
2023/05/23 09:53:52;;;;;;;5.63;5.03;;;;;;;;;;5114819;28;20215;-75
2023/05/23 09:56:23;;;;;;;5.83;5.33;;;;;;;;;;5098773;28;20200;-75
2023/05/23 09:58:50;;;;;;;5.00;4.60;;;;;;;;;;5101828;28;20212;-75
2023/05/23 10:01:23;;;;;;;5.40;4.90;;;;;;;;;;5120307;28;20218;-75
2023/05/23 10:03:57;;;;;;;5.63;4.80;;;;;;;;;;5090233;28;20180;-75
2023/05/23 10:06:25;;;;;;;5.23;4.77;;;;;;;;;;5097453;27;20216;-75
2023/05/23 10:08:58;;;;;;;5.27;4.73;;;;;;;;;;5100508;28;20211;-75
2023/05/23 10:11:36;;;;;;;5.00;4.60;;;;;;;;;;5090467;28;20224;-75
2023/05/23 10:14:12;;;;;;;5.10;4.70;;;;;;;;;;5083954;28;20199;-75
2023/05/23 10:17:00;;;;;;;4.83;4.43;;;;;;;;;;5089132;28;20586;-75
2023/05/23 10:19:43;;;;;;;4.90;4.50;;;;;;;;;;5098010;28;20206;-75
2023/05/23 10:22:16;;;;;;;5.47;4.97;;;;;;;;;;5110816;28;20179;-75
2023/05/23 10:24:45;;;;;;;4.70;4.30;;;;;;;;;;5088651;28;20538;-75
2023/05/23 10:27:12;;;;;;;4.80;4.40;;;;;;;;;;5095973;28;20204;-73
2023/05/23 10:29:44;;;;;;;5.13;4.43;;;;;;;;;;5086428;28;20227;-74
2023/05/23 10:32:14;;;;;;;4.93;4.43;;;;;;;;;;5082392;28;21869;-75
2023/05/23 10:34:59;;;;;;;5.13;4.73;;;;;;;;;;5080810;28;20185;-73
2023/05/23 10:37:55;;;;;;;5.20;4.67;;;;;;;;;;5099060;28;20239;-74
2023/05/23 10:40:53;;;;;;;4.70;4.30;;;;;;;;;;5100578;28;20202;-76
2023/05/23 10:43:48;;;;;;;4.20;3.90;;;;;;;;;;5091823;28;20191;-74
2023/05/23 10:46:15;;;;;;;4.43;4.03;;;;;;;;;;5090757;28;20188;-72
2023/05/23 10:48:42;;;;;;;4.40;4.00;;;;;;;;;;5081882;28;20274;-73
2023/05/23 10:51:10;;;;;;;4.20;3.83;;;;;;;;;;5091411;28;20240;-73
2023/05/23 10:53:48;;;;;;;4.40;4.10;;;;;;;;;;5093663;28;20218;-74
2023/05/23 10:56:25;;;;;;;4.40;4.00;;;;;;;;;;5097873;28;20219;-73
2023/05/23 10:58:57;;;;;;;5.93;4.00;;;;;;;;;;5088700;28;20184;-73
2023/05/23 11:01:28;;;;;;;5.57;4.17;;;;;;;;;;5095954;28;20191;-72
2023/05/23 11:04:11;;;;;;;4.27;3.87;;;;;;;;;;5089936;28;20177;-73
2023/05/23 11:06:42;;;;;;;4.73;4.00;;;;;;;;;;5072311;28;20185;-75
2023/05/23 11:09:20;;;;;;;3.70;3.40;;;;;;;;;;5071865;28;20208;-75
2023/05/23 11:11:53;;;;;;;4.50;3.97;;;;;;;;;;5085834;28;20181;-75
2023/05/23 11:14:36;;;;;;;4.20;3.90;;;;;;;;;;5096996;28;20612;-75
2023/05/23 11:17:23;;;;;;;4.60;4.20;;;;;;;;;;5090342;28;20280;-75
2023/05/23 11:19:59;;;;;;;4.40;4.00;;;;;;;;;;5072746;28;20667;-79
2023/05/23 11:22:31;;;;;;;4.53;4.13;;;;;;;;;;5083485;28;20544;-75
2023/05/23 11:25:06;;;;;;;5.27;4.50;;;;;;;;;;5080415;28;20519;-75
2023/05/23 11:27:37;;;;;;;4.63;4.20;;;;;;;;;;5079386;28;20692;-74
2023/05/23 11:30:06;;;;;;;5.03;3.90;;;;;;;;;;5074575;28;20987;-74
2023/05/23 11:32:37;;;;;;;4.73;4.33;;;;;;;;;;5090673;28;20666;-74
2023/05/23 11:35:06;;;;;;;4.50;4.10;;;;;;;;;;5081744;28;20269;-75
2023/05/23 11:37:35;;;;;;;4.87;4.03;;;;;;;;;;5091520;28;20510;-75
2023/05/23 11:40:25;;;;;;;4.63;4.23;;;;;;;;;;5103575;27;20267;-75
2023/05/23 11:42:53;;;;;;;4.37;3.97;;;;;;;;;;5092520;28;20192;-74
2023/05/23 11:45:25;;;;;;;4.43;4.03;;;;;;;;;;5081555;28;20626;-74
2023/05/23 11:47:55;;;;;;;4.70;4.30;;;;;;;;;;5098226;28;20209;-75
2023/05/23 11:50:28;;;;;;;5.03;4.30;;;;;;;;;;5082803;28;20303;-75
2023/05/23 11:52:55;;;;;;;4.40;4.00;;;;;;;;;;5087782;28;20259;-75
2023/05/23 11:55:27;;;;;;;4.30;3.90;;;;;;;;;;5105742;28;20654;-75
2023/05/23 11:57:56;;;;;;;4.27;3.90;;;;;;;;;;5080901;28;20254;-74
2023/05/23 12:00:30;;;;;;;4.87;4.37;;;;;;;;;;5086257;28;20981;-75
2023/05/23 12:03:06;;;;;;;4.43;4.00;;;;;;;;;;5089198;28;20552;-74
2023/05/23 12:05:36;;;;;;;5.77;4.20;;;;;;;;;;5091419;28;20678;-78
2023/05/23 12:08:08;;;;;;;5.00;4.60;;;;;;;;;;5090367;28;20206;-76
2023/05/23 12:10:56;;;;;;;5.20;4.70;;;;;;;;;;5077557;28;20187;-76
2023/05/23 12:13:29;;;;;;;6.50;5.07;;;;;;;;;;5115913;27;20189;-77
2023/05/23 12:16:03;;;;;;;5.90;5.40;;;;;;;;;;5107706;28;20265;-76
2023/05/23 12:18:30;;;;;;;7.70;5.90;;;;;;;;;;5089677;28;20201;-77
2023/05/23 12:21:04;;;;;;;6.70;6.10;;;;;;;;;;5090705;28;20271;-76
2023/05/23 12:23:31;;;;;;;8.03;7.27;;;;;;;;;;5086183;28;20258;-76
2023/05/23 12:25:58;;;;;;;7.53;6.83;;;;;;;;;;5090292;28;20192;-76
2023/05/23 12:28:35;;;;;;;7.37;6.67;;;;;;;;;;5097355;28;20212;-76
2023/05/23 12:31:15;;;;;;;7.20;6.50;;;;;;;;;;5084193;28;20195;-76
2023/05/23 12:34:00;;;;;;;7.07;6.47;;;;;;;;;;5074805;28;20611;-76
2023/05/23 12:36:33;;;;;;;6.90;6.30;;;;;;;;;;5088435;28;20220;-77
2023/05/23 12:39:02;;;;;;;7.60;6.20;;;;;;;;;;5090811;28;20181;-76
2023/05/23 12:41:29;;;;;;;6.93;6.33;;;;;;;;;;5096424;28;20213;-77
2023/05/23 12:44:17;;;;;;;6.90;6.30;;;;;;;;;;5082346;28;20175;-77
2023/05/23 12:46:43;;;;;;;8.10;7.30;;;;;;;;;;5089712;28;20181;-77
2023/05/23 12:49:10;;;;;;;9.03;7.53;;;;;;;;;;5076970;28;20179;-77
2023/05/23 12:51:42;;;;;;;8.83;7.93;;;;;;;;;;5085990;28;20194;-77
2023/05/23 12:54:08;;;;;;;7.97;7.20;;;;;;;;;;5100802;28;20179;-77
2023/05/23 12:56:35;;;;;;;8.47;7.00;;;;;;;;;;5110006;28;20264;-77
2023/05/23 12:59:09;;;;;;;7.73;7.03;;;;;;;;;;5083039;28;20207;-77
2023/05/23 13:01:47;;;;;;;8.47;7.47;;;;;;;;;;5093272;28;20191;-77
2023/05/23 13:04:17;;;;;;;7.77;6.97;;;;;;;;;;5088455;28;20260;-77
2023/05/23 13:06:47;;;;;;;8.53;7.50;;;;;;;;;;5053155;28;20214;-77
2023/05/23 13:09:13;;;;;;;7.50;6.80;;;;;;;;;;5089841;28;20723;-77
2023/05/23 13:11:41;;;;;;;6.83;6.13;;;;;;;;;;5093680;28;20666;-77
2023/05/23 13:14:08;;;;;;;7.00;6.40;;;;;;;;;;5086632;28;20542;-76
2023/05/23 13:16:39;;;;;;;7.03;5.90;;;;;;;;;;5094420;28;20620;-76
2023/05/23 13:19:08;;;;;;;6.93;6.33;;;;;;;;;;5082423;28;20180;-76
2023/05/23 13:21:35;;;;;;;7.10;6.50;;;;;;;;;;5089622;28;20265;-77
2023/05/23 13:24:04;;;;;;;7.33;6.47;;;;;;;;;;5085400;28;20186;-77
2023/05/23 13:26:31;;;;;;;8.63;7.03;;;;;;;;;;5090543;28;20208;-77
2023/05/23 13:28:57;;;;;;;7.93;7.07;;;;;;;;;;5092339;28;20219;-77
2023/05/23 13:31:26;;;;;;;10.70;6.10;;;;;;;;;;5086494;28;20609;-76
2023/05/23 13:33:56;;;;;;;7.57;6.87;;;;;;;;;;5089676;28;20183;-76
2023/05/23 13:36:24;;;;;;;8.23;7.20;;;;;;;;;;5082798;28;20217;-76
2023/05/23 13:38:56;;;;;;;8.87;7.83;;;;;;;;;;5100326;28;20246;-77
2023/05/23 13:41:26;;;;;;;8.23;7.53;;;;;;;;;;5108241;28;20230;-77
2023/05/23 13:43:53;;;;;;;8.63;7.50;;;;;;;;;;5096644;28;20185;-77
2023/05/23 13:46:28;;;;;;;7.87;7.17;;;;;;;;;;5099298;28;20200;-76
2023/05/23 13:48:54;;;;;;;7.20;6.50;;;;;;;;;;5074565;28;20542;-76
2023/05/23 13:51:21;;;;;;;6.77;6.07;;;;;;;;;;5080734;28;20301;-76
2023/05/23 13:53:50;;;;;;;8.33;6.00;;;;;;;;;;5078358;28;20189;-77
2023/05/23 13:56:20;;;;;;;6.30;5.43;;;;;;;;;;5087937;28;20216;-78
2023/05/23 13:58:51;;;;;;;5.47;4.90;;;;;;;;;;5075092;28;20303;-77
2023/05/23 14:01:18;;;;;;;5.43;4.80;;;;;;;;;;5096248;28;20177;-76
2023/05/23 14:03:49;;;;;;;4.93;4.47;;;;;;;;;;5110679;28;20590;-76
2023/05/23 14:06:17;;;;;;;4.67;4.23;;;;;;;;;;5093183;28;20173;-76
2023/05/23 14:08:43;;;;;;;4.83;4.33;;;;;;;;;;5095343;28;20668;-78
2023/05/23 14:11:12;;;;;;;5.97;5.10;;;;;;;;;;5073750;28;20192;-78
2023/05/23 14:13:39;;;;;;;5.23;4.73;;;;;;;;;;5083569;28;20211;-78
2023/05/23 14:16:06;;;;;;;4.33;4.03;;;;;;;;;;5104107;28;20787;-78
2023/05/23 14:18:35;;;;;;;4.07;3.77;;;;;;;;;;5115368;28;20197;-78
2023/05/23 14:21:09;;;;;;;3.50;3.20;;;;;;;;;;5092756;28;20181;-77
2023/05/23 14:23:43;;;;;;;3.93;2.90;;;;;;;;;;5106262;28;20264;-78
2023/05/23 14:26:10;;;;;;;3.60;3.17;;;;;;;;;;5087646;28;20224;-78
2023/05/23 14:28:42;;;;;;;3.40;3.10;;;;;;;;;;5076704;28;20258;-78
2023/05/23 14:31:11;;;;;;;3.77;3.20;;;;;;;;;;5090111;28;20183;-78
2023/05/23 14:33:38;;;;;;;3.60;3.30;;;;;;;;;;5093014;28;20189;-78
2023/05/23 14:36:05;;;;;;;4.60;3.07;;;;;;;;;;5106350;28;20678;-78
2023/05/23 14:38:31;;;;;;;3.60;3.30;;;;;;;;;;5091996;28;20208;-78
2023/05/23 14:40:58;;;;;;;4.80;3.10;;;;;;;;;;5102908;28;20196;-78
2023/05/23 14:43:25;;;;;;;4.60;3.97;;;;;;;;;;5091766;28;20185;-78